sensor_id;sensor_type;location;lat;lon;timestamp;temperature;humidity
41720;DHT22;27405;53.316;-6.294;2023-08-31T00:00:46;15.70;99.90
41720;DHT22;27405;53.316;-6.294;2023-08-31T00:03:12;15.70;99.90
41720;DHT22;27405;53.316;-6.294;2023-08-31T00:05:41;15.70;99.90
41720;DHT22;27405;53.316;-6.294;2023-08-31T00:08:08;15.60;99.90
41720;DHT22;27405;53.316;-6.294;2023-08-31T00:10:34;15.60;99.90
41720;DHT22;27405;53.316;-6.294;2023-08-31T00:13:04;15.60;99.90
41720;DHT22;27405;53.316;-6.294;2023-08-31T00:15:30;15.60;99.90
41720;DHT22;27405;53.316;-6.294;2023-08-31T00:17:59;15.60;99.90
41720;DHT22;27405;53.316;-6.294;2023-08-31T00:20:25;15.60;99.90
41720;DHT22;27405;53.316;-6.294;2023-08-31T00:22:52;15.60;99.90
41720;DHT22;27405;53.316;-6.294;2023-08-31T00:25:18;15.60;99.90
41720;DHT22;27405;53.316;-6.294;2023-08-31T00:27:44;15.60;99.90
41720;DHT22;27405;53.316;-6.294;2023-08-31T00:30:14;15.60;99.90
41720;DHT22;27405;53.316;-6.294;2023-08-31T00:32:41;15.50;99.90
41720;DHT22;27405;53.316;-6.294;2023-08-31T00:35:09;15.50;99.90
41720;DHT22;27405;53.316;-6.294;2023-08-31T00:37:35;15.50;99.90
41720;DHT22;27405;53.316;-6.294;2023-08-31T00:40:01;15.50;99.90
41720;DHT22;27405;53.316;-6.294;2023-08-31T00:42:30;15.50;99.90
41720;DHT22;27405;53.316;-6.294;2023-08-31T00:44:56;15.50;99.90
41720;DHT22;27405;53.316;-6.294;2023-08-31T00:50:48;15.50;99.90
41720;DHT22;27405;53.316;-6.294;2023-08-31T00:53:15;15.50;99.90
41720;DHT22;27405;53.316;-6.294;2023-08-31T00:59:02;15.50;99.90
41720;DHT22;27405;53.316;-6.294;2023-08-31T01:01:38;15.50;99.90
41720;DHT22;27405;53.316;-6.294;2023-08-31T01:04:33;15.40;99.90
41720;DHT22;27405;53.316;-6.294;2023-08-31T01:07:11;15.40;99.90
41720;DHT22;27405;53.316;-6.294;2023-08-31T01:10:11;15.50;99.90
41720;DHT22;27405;53.316;-6.294;2023-08-31T01:12:41;15.40;99.90
41720;DHT22;27405;53.316;-6.294;2023-08-31T01:15:13;15.40;99.90
41720;DHT22;27405;53.316;-6.294;2023-08-31T01:17:48;15.40;99.90
41720;DHT22;27405;53.316;-6.294;2023-08-31T01:20:19;15.40;99.90
41720;DHT22;27405;53.316;-6.294;2023-08-31T01:22:55;15.40;99.90
41720;DHT22;27405;53.316;-6.294;2023-08-31T01:25:23;15.40;99.90
41720;DHT22;27405;53.316;-6.294;2023-08-31T01:27:51;15.40;99.90
41720;DHT22;27405;53.316;-6.294;2023-08-31T01:30:17;15.40;99.90
41720;DHT22;27405;53.316;-6.294;2023-08-31T01:32:44;15.40;99.90
41720;DHT22;27405;53.316;-6.294;2023-08-31T01:35:16;15.40;99.90
41720;DHT22;27405;53.316;-6.294;2023-08-31T01:43:01;15.30;99.90
41720;DHT22;27405;53.316;-6.294;2023-08-31T01:45:29;15.30;99.80
41720;DHT22;27405;53.316;-6.294;2023-08-31T01:47:56;15.30;99.70
41720;DHT22;27405;53.316;-6.294;2023-08-31T01:50:23;15.30;99.60
41720;DHT22;27405;53.316;-6.294;2023-08-31T01:52:49;15.30;99.60
41720;DHT22;27405;53.316;-6.294;2023-08-31T01:55:15;15.30;99.70
41720;DHT22;27405;53.316;-6.294;2023-08-31T01:57:41;15.30;99.60
41720;DHT22;27405;53.316;-6.294;2023-08-31T02:00:11;15.30;99.40
41720;DHT22;27405;53.316;-6.294;2023-08-31T02:02:37;15.30;99.20
41720;DHT22;27405;53.316;-6.294;2023-08-31T02:05:03;15.20;99.10
41720;DHT22;27405;53.316;-6.294;2023-08-31T02:07:30;15.20;98.90
41720;DHT22;27405;53.316;-6.294;2023-08-31T02:09:56;15.20;98.80
41720;DHT22;27405;53.316;-6.294;2023-08-31T02:12:22;15.20;98.70
41720;DHT22;27405;53.316;-6.294;2023-08-31T02:14:48;15.20;98.60
41720;DHT22;27405;53.316;-6.294;2023-08-31T02:17:14;15.20;98.50
41720;DHT22;27405;53.316;-6.294;2023-08-31T02:19:40;15.10;98.50
41720;DHT22;27405;53.316;-6.294;2023-08-31T02:22:06;15.10;98.50
41720;DHT22;27405;53.316;-6.294;2023-08-31T02:24:32;15.10;98.50
41720;DHT22;27405;53.316;-6.294;2023-08-31T02:30:20;15.10;98.60
41720;DHT22;27405;53.316;-6.294;2023-08-31T02:32:46;15.00;98.60
41720;DHT22;27405;53.316;-6.294;2023-08-31T02:35:12;15.00;98.60
41720;DHT22;27405;53.316;-6.294;2023-08-31T02:37:38;15.00;98.70
41720;DHT22;27405;53.316;-6.294;2023-08-31T02:40:05;15.00;98.70
41720;DHT22;27405;53.316;-6.294;2023-08-31T02:42:32;14.90;98.90
41720;DHT22;27405;53.316;-6.294;2023-08-31T02:44:58;14.90;99.10
41720;DHT22;27405;53.316;-6.294;2023-08-31T02:47:24;14.90;99.10
41720;DHT22;27405;53.316;-6.294;2023-08-31T02:49:50;14.90;99.20
41720;DHT22;27405;53.316;-6.294;2023-08-31T02:52:16;14.90;99.30
41720;DHT22;27405;53.316;-6.294;2023-08-31T02:54:42;14.90;99.40
41720;DHT22;27405;53.316;-6.294;2023-08-31T02:57:08;14.90;99.50
41720;DHT22;27405;53.316;-6.294;2023-08-31T02:59:34;15.00;99.50
41720;DHT22;27405;53.316;-6.294;2023-08-31T03:02:04;14.90;99.50
41720;DHT22;27405;53.316;-6.294;2023-08-31T03:04:30;14.90;99.50
41720;DHT22;27405;53.316;-6.294;2023-08-31T03:06:56;15.00;99.50
41720;DHT22;27405;53.316;-6.294;2023-08-31T03:09:22;14.90;99.50
41720;DHT22;27405;53.316;-6.294;2023-08-31T03:11:48;14.90;99.60
41720;DHT22;27405;53.316;-6.294;2023-08-31T03:14:14;14.90;99.70
41720;DHT22;27405;53.316;-6.294;2023-08-31T03:16:40;14.90;99.80
41720;DHT22;27405;53.316;-6.294;2023-08-31T03:19:06;14.90;99.80
41720;DHT22;27405;53.316;-6.294;2023-08-31T03:21:32;14.90;99.80
41720;DHT22;27405;53.316;-6.294;2023-08-31T03:23:58;14.90;99.80
41720;DHT22;27405;53.316;-6.294;2023-08-31T03:26:24;14.90;99.90
41720;DHT22;27405;53.316;-6.294;2023-08-31T03:28:50;15.00;99.90
41720;DHT22;27405;53.316;-6.294;2023-08-31T03:31:16;15.00;99.90
41720;DHT22;27405;53.316;-6.294;2023-08-31T03:33:42;15.00;99.90
41720;DHT22;27405;53.316;-6.294;2023-08-31T03:36:08;15.00;99.90
41720;DHT22;27405;53.316;-6.294;2023-08-31T03:38:34;15.00;99.90
41720;DHT22;27405;53.316;-6.294;2023-08-31T03:41:03;15.00;99.90
41720;DHT22;27405;53.316;-6.294;2023-08-31T03:43:30;15.00;99.90
41720;DHT22;27405;53.316;-6.294;2023-08-31T03:45:59;15.00;99.90
41720;DHT22;27405;53.316;-6.294;2023-08-31T03:48:25;15.00;99.90
41720;DHT22;27405;53.316;-6.294;2023-08-31T03:50:53;15.00;99.90
41720;DHT22;27405;53.316;-6.294;2023-08-31T03:53:19;15.00;99.90
41720;DHT22;27405;53.316;-6.294;2023-08-31T03:55:46;15.00;99.90
41720;DHT22;27405;53.316;-6.294;2023-08-31T03:58:12;15.00;99.90
41720;DHT22;27405;53.316;-6.294;2023-08-31T04:00:38;15.00;99.90
41720;DHT22;27405;53.316;-6.294;2023-08-31T04:03:05;15.00;99.90
41720;DHT22;27405;53.316;-6.294;2023-08-31T04:05:35;15.00;99.90
41720;DHT22;27405;53.316;-6.294;2023-08-31T04:08:02;15.00;99.90
41720;DHT22;27405;53.316;-6.294;2023-08-31T04:10:28;15.00;99.90
41720;DHT22;27405;53.316;-6.294;2023-08-31T04:12:55;15.00;99.90
41720;DHT22;27405;53.316;-6.294;2023-08-31T04:15:21;15.00;99.90
41720;DHT22;27405;53.316;-6.294;2023-08-31T04:17:47;14.90;99.90
41720;DHT22;27405;53.316;-6.294;2023-08-31T04:20:15;15.00;99.90
41720;DHT22;27405;53.316;-6.294;2023-08-31T04:22:41;14.90;99.90
41720;DHT22;27405;53.316;-6.294;2023-08-31T04:25:07;15.00;99.90
41720;DHT22;27405;53.316;-6.294;2023-08-31T04:27:33;14.90;99.90
41720;DHT22;27405;53.316;-6.294;2023-08-31T04:30:01;15.00;99.90
41720;DHT22;27405;53.316;-6.294;2023-08-31T04:32:28;15.00;99.90
41720;DHT22;27405;53.316;-6.294;2023-08-31T04:34:54;15.00;99.90
41720;DHT22;27405;53.316;-6.294;2023-08-31T04:37:21;15.00;99.90
41720;DHT22;27405;53.316;-6.294;2023-08-31T04:39:47;15.00;99.90
41720;DHT22;27405;53.316;-6.294;2023-08-31T04:42:13;15.00;99.90
41720;DHT22;27405;53.316;-6.294;2023-08-31T04:44:42;15.00;99.90
41720;DHT22;27405;53.316;-6.294;2023-08-31T04:47:08;15.00;99.90
41720;DHT22;27405;53.316;-6.294;2023-08-31T04:49:34;15.00;99.90
41720;DHT22;27405;53.316;-6.294;2023-08-31T04:52:00;15.00;99.90
41720;DHT22;27405;53.316;-6.294;2023-08-31T04:54:26;15.00;99.90
41720;DHT22;27405;53.316;-6.294;2023-08-31T04:56:52;15.00;99.90
41720;DHT22;27405;53.316;-6.294;2023-08-31T04:59:18;15.00;99.90
41720;DHT22;27405;53.316;-6.294;2023-08-31T05:01:44;15.00;99.90
41720;DHT22;27405;53.316;-6.294;2023-08-31T05:04:10;15.00;99.90
41720;DHT22;27405;53.316;-6.294;2023-08-31T05:06:36;15.00;99.90
41720;DHT22;27405;53.316;-6.294;2023-08-31T05:09:01;15.10;99.90
41720;DHT22;27405;53.316;-6.294;2023-08-31T05:11:28;15.00;99.90
41720;DHT22;27405;53.316;-6.294;2023-08-31T05:13:54;15.10;99.90
41720;DHT22;27405;53.316;-6.294;2023-08-31T05:19:42;15.00;99.90
41720;DHT22;27405;53.316;-6.294;2023-08-31T05:22:08;15.00;99.90
41720;DHT22;27405;53.316;-6.294;2023-08-31T05:24:34;15.00;99.90
41720;DHT22;27405;53.316;-6.294;2023-08-31T05:27:00;15.10;99.90
41720;DHT22;27405;53.316;-6.294;2023-08-31T05:29:26;15.00;99.90
41720;DHT22;27405;53.316;-6.294;2023-08-31T05:31:52;15.10;99.90
41720;DHT22;27405;53.316;-6.294;2023-08-31T05:34:21;15.10;99.90
41720;DHT22;27405;53.316;-6.294;2023-08-31T05:36:48;15.10;99.90
41720;DHT22;27405;53.316;-6.294;2023-08-31T05:39:14;15.10;99.90
41720;DHT22;27405;53.316;-6.294;2023-08-31T05:41:42;15.20;99.90
41720;DHT22;27405;53.316;-6.294;2023-08-31T05:44:09;15.10;99.90
41720;DHT22;27405;53.316;-6.294;2023-08-31T05:46:35;15.20;99.90
41720;DHT22;27405;53.316;-6.294;2023-08-31T05:49:01;15.20;99.90
41720;DHT22;27405;53.316;-6.294;2023-08-31T05:51:27;15.20;99.90
41720;DHT22;27405;53.316;-6.294;2023-08-31T05:53:53;15.20;99.90
41720;DHT22;27405;53.316;-6.294;2023-08-31T05:56:19;15.20;99.90
41720;DHT22;27405;53.316;-6.294;2023-08-31T05:58:45;15.20;99.90
41720;DHT22;27405;53.316;-6.294;2023-08-31T06:01:13;15.20;99.90
41720;DHT22;27405;53.316;-6.294;2023-08-31T06:03:39;15.30;99.90
41720;DHT22;27405;53.316;-6.294;2023-08-31T06:06:05;15.30;99.90
41720;DHT22;27405;53.316;-6.294;2023-08-31T06:08:31;15.20;99.90
41720;DHT22;27405;53.316;-6.294;2023-08-31T06:10:57;15.20;99.90
41720;DHT22;27405;53.316;-6.294;2023-08-31T06:13:23;15.20;99.90
41720;DHT22;27405;53.316;-6.294;2023-08-31T06:15:49;15.30;99.90
41720;DHT22;27405;53.316;-6.294;2023-08-31T06:21:37;15.30;99.90
41720;DHT22;27405;53.316;-6.294;2023-08-31T06:24:03;15.30;99.90
41720;DHT22;27405;53.316;-6.294;2023-08-31T06:29:52;15.30;99.90
41720;DHT22;27405;53.316;-6.294;2023-08-31T06:32:18;15.40;99.90
41720;DHT22;27405;53.316;-6.294;2023-08-31T06:34:45;15.40;99.90
41720;DHT22;27405;53.316;-6.294;2023-08-31T06:40:33;15.40;99.90
41720;DHT22;27405;53.316;-6.294;2023-08-31T06:42:59;15.40;99.90
41720;DHT22;27405;53.316;-6.294;2023-08-31T06:48:47;15.40;99.90
41720;DHT22;27405;53.316;-6.294;2023-08-31T06:51:15;15.40;99.90
41720;DHT22;27405;53.316;-6.294;2023-08-31T06:53:43;15.40;99.90
41720;DHT22;27405;53.316;-6.294;2023-08-31T06:59:31;15.40;99.90
41720;DHT22;27405;53.316;-6.294;2023-08-31T07:01:57;15.40;99.90
41720;DHT22;27405;53.316;-6.294;2023-08-31T07:07:44;15.40;99.90
41720;DHT22;27405;53.316;-6.294;2023-08-31T07:12:37;15.40;99.90
41720;DHT22;27405;53.316;-6.294;2023-08-31T07:18:25;15.40;99.90
41720;DHT22;27405;53.316;-6.294;2023-08-31T07:20:51;15.40;99.90
41720;DHT22;27405;53.316;-6.294;2023-08-31T07:23:17;15.40;99.90
41720;DHT22;27405;53.316;-6.294;2023-08-31T07:29:05;15.30;99.90
41720;DHT22;27405;53.316;-6.294;2023-08-31T07:34:53;15.30;99.90
41720;DHT22;27405;53.316;-6.294;2023-08-31T07:37:19;15.30;99.90
41720;DHT22;27405;53.316;-6.294;2023-08-31T07:43:07;15.30;99.90
41720;DHT22;27405;53.316;-6.294;2023-08-31T07:48:55;15.40;99.90
41720;DHT22;27405;53.316;-6.294;2023-08-31T07:51:21;15.40;99.90
41720;DHT22;27405;53.316;-6.294;2023-08-31T07:57:10;15.40;99.90
41720;DHT22;27405;53.316;-6.294;2023-08-31T08:02:58;15.40;99.90
41720;DHT22;27405;53.316;-6.294;2023-08-31T08:08:46;15.50;99.90
41720;DHT22;27405;53.316;-6.294;2023-08-31T08:11:12;15.70;99.90
41720;DHT22;27405;53.316;-6.294;2023-08-31T08:13:38;15.70;99.90
41720;DHT22;27405;53.316;-6.294;2023-08-31T08:19:25;15.70;99.90
41720;DHT22;27405;53.316;-6.294;2023-08-31T08:21:51;15.70;99.90
41720;DHT22;27405;53.316;-6.294;2023-08-31T08:27:39;15.80;99.90
41720;DHT22;27405;53.316;-6.294;2023-08-31T08:30:06;15.80;99.90
41720;DHT22;27405;53.316;-6.294;2023-08-31T08:35:56;15.90;99.90
41720;DHT22;27405;53.316;-6.294;2023-08-31T08:38:22;15.90;99.90
41720;DHT22;27405;53.316;-6.294;2023-08-31T08:44:10;16.00;99.90
41720;DHT22;27405;53.316;-6.294;2023-08-31T08:49:59;16.20;99.90
41720;DHT22;27405;53.316;-6.294;2023-08-31T08:52:26;16.40;99.90
41720;DHT22;27405;53.316;-6.294;2023-08-31T08:54:53;16.50;99.90
41720;DHT22;27405;53.316;-6.294;2023-08-31T08:57:19;16.60;99.90
41720;DHT22;27405;53.316;-6.294;2023-08-31T09:03:07;16.80;99.90
41720;DHT22;27405;53.316;-6.294;2023-08-31T09:08:55;17.10;99.90
41720;DHT22;27405;53.316;-6.294;2023-08-31T09:11:24;17.20;99.90
41720;DHT22;27405;53.316;-6.294;2023-08-31T09:13:51;17.30;99.90
41720;DHT22;27405;53.316;-6.294;2023-08-31T09:16:27;17.30;99.90
41720;DHT22;27405;53.316;-6.294;2023-08-31T09:18:57;17.20;99.90
41720;DHT22;27405;53.316;-6.294;2023-08-31T09:24:46;17.20;99.90
41720;DHT22;27405;53.316;-6.294;2023-08-31T09:27:12;17.20;99.90
41720;DHT22;27405;53.316;-6.294;2023-08-31T09:29:38;17.30;99.90
41720;DHT22;27405;53.316;-6.294;2023-08-31T09:32:05;17.40;99.90
41720;DHT22;27405;53.316;-6.294;2023-08-31T09:37:57;17.50;99.90
41720;DHT22;27405;53.316;-6.294;2023-08-31T09:40:23;17.70;99.90
41720;DHT22;27405;53.316;-6.294;2023-08-31T09:42:52;17.80;99.90
41720;DHT22;27405;53.316;-6.294;2023-08-31T09:45:31;17.90;99.90
41720;DHT22;27405;53.316;-6.294;2023-08-31T09:47:59;17.90;99.90
41720;DHT22;27405;53.316;-6.294;2023-08-31T09:50:29;17.90;99.90
41720;DHT22;27405;53.316;-6.294;2023-08-31T09:53:03;17.80;99.90
41720;DHT22;27405;53.316;-6.294;2023-08-31T09:55:31;17.80;99.90
41720;DHT22;27405;53.316;-6.294;2023-08-31T09:58:01;17.70;99.90
41720;DHT22;27405;53.316;-6.294;2023-08-31T10:00:32;17.60;99.90
41720;DHT22;27405;53.316;-6.294;2023-08-31T10:03:03;17.60;99.90
41720;DHT22;27405;53.316;-6.294;2023-08-31T10:08:51;17.60;99.90
41720;DHT22;27405;53.316;-6.294;2023-08-31T10:11:18;17.60;99.90
41720;DHT22;27405;53.316;-6.294;2023-08-31T10:13:45;17.70;99.90
41720;DHT22;27405;53.316;-6.294;2023-08-31T10:16:13;17.80;99.90
41720;DHT22;27405;53.316;-6.294;2023-08-31T10:18:41;18.00;99.90
41720;DHT22;27405;53.316;-6.294;2023-08-31T10:21:07;18.10;99.90
41720;DHT22;27405;53.316;-6.294;2023-08-31T10:23:34;18.30;99.90
41720;DHT22;27405;53.316;-6.294;2023-08-31T10:26:02;18.40;99.90
41720;DHT22;27405;53.316;-6.294;2023-08-31T10:28:29;18.50;99.90
41720;DHT22;27405;53.316;-6.294;2023-08-31T10:31:06;18.60;99.90
41720;DHT22;27405;53.316;-6.294;2023-08-31T10:33:40;18.80;99.90
41720;DHT22;27405;53.316;-6.294;2023-08-31T10:36:14;18.90;99.90
41720;DHT22;27405;53.316;-6.294;2023-08-31T10:38:45;19.00;99.90
41720;DHT22;27405;53.316;-6.294;2023-08-31T10:51:35;19.10;99.90
41720;DHT22;27405;53.316;-6.294;2023-08-31T10:56:32;19.10;99.90
41720;DHT22;27405;53.316;-6.294;2023-08-31T10:58:59;19.10;99.90
41720;DHT22;27405;53.316;-6.294;2023-08-31T11:01:57;19.10;99.90
41720;DHT22;27405;53.316;-6.294;2023-08-31T11:04:27;19.10;99.90
41720;DHT22;27405;53.316;-6.294;2023-08-31T11:07:12;19.10;99.90
41720;DHT22;27405;53.316;-6.294;2023-08-31T11:09:39;19.00;99.90
41720;DHT22;27405;53.316;-6.294;2023-08-31T11:12:05;19.00;99.90
41720;DHT22;27405;53.316;-6.294;2023-08-31T11:14:31;19.00;99.90
41720;DHT22;27405;53.316;-6.294;2023-08-31T11:16:57;19.00;99.90
41720;DHT22;27405;53.316;-6.294;2023-08-31T11:19:25;19.10;99.90
41720;DHT22;27405;53.316;-6.294;2023-08-31T11:21:51;19.10;99.90
41720;DHT22;27405;53.316;-6.294;2023-08-31T11:24:18;19.20;99.90
41720;DHT22;27405;53.316;-6.294;2023-08-31T11:26:44;19.30;99.90
41720;DHT22;27405;53.316;-6.294;2023-08-31T11:29:10;19.50;99.90
41720;DHT22;27405;53.316;-6.294;2023-08-31T11:31:39;19.60;99.90
41720;DHT22;27405;53.316;-6.294;2023-08-31T11:37:29;19.90;99.90
41720;DHT22;27405;53.316;-6.294;2023-08-31T11:43:18;20.30;99.90
41720;DHT22;27405;53.316;-6.294;2023-08-31T11:45:45;20.30;99.90
41720;DHT22;27405;53.316;-6.294;2023-08-31T11:48:11;20.40;99.90
41720;DHT22;27405;53.316;-6.294;2023-08-31T11:50:38;20.30;99.90
41720;DHT22;27405;53.316;-6.294;2023-08-31T11:53:05;20.40;99.90
41720;DHT22;27405;53.316;-6.294;2023-08-31T11:55:33;20.40;99.90
41720;DHT22;27405;53.316;-6.294;2023-08-31T11:57:59;20.40;99.90
41720;DHT22;27405;53.316;-6.294;2023-08-31T12:00:25;20.40;99.90
41720;DHT22;27405;53.316;-6.294;2023-08-31T12:03:00;20.40;99.90
41720;DHT22;27405;53.316;-6.294;2023-08-31T12:05:27;20.40;99.80
41720;DHT22;27405;53.316;-6.294;2023-08-31T12:07:54;20.30;99.60
41720;DHT22;27405;53.316;-6.294;2023-08-31T12:10:20;20.20;99.60
41720;DHT22;27405;53.316;-6.294;2023-08-31T12:12:47;20.10;99.70
41720;DHT22;27405;53.316;-6.294;2023-08-31T12:15:13;20.00;99.60
41720;DHT22;27405;53.316;-6.294;2023-08-31T12:17:39;19.90;99.60
41720;DHT22;27405;53.316;-6.294;2023-08-31T12:20:06;19.90;99.80
41720;DHT22;27405;53.316;-6.294;2023-08-31T12:22:33;19.80;99.90
41720;DHT22;27405;53.316;-6.294;2023-08-31T12:24:59;19.80;99.90
41720;DHT22;27405;53.316;-6.294;2023-08-31T12:27:25;19.90;99.90
41720;DHT22;27405;53.316;-6.294;2023-08-31T12:29:51;20.00;99.90
41720;DHT22;27405;53.316;-6.294;2023-08-31T12:32:17;20.00;99.90
41720;DHT22;27405;53.316;-6.294;2023-08-31T12:34:44;20.10;99.90
41720;DHT22;27405;53.316;-6.294;2023-08-31T12:37:10;20.20;99.90
41720;DHT22;27405;53.316;-6.294;2023-08-31T12:39:36;20.20;99.90
41720;DHT22;27405;53.316;-6.294;2023-08-31T12:42:03;20.30;99.90
41720;DHT22;27405;53.316;-6.294;2023-08-31T12:44:30;20.40;99.90
41720;DHT22;27405;53.316;-6.294;2023-08-31T12:50:18;20.50;99.90
41720;DHT22;27405;53.316;-6.294;2023-08-31T12:52:45;20.40;99.90
41720;DHT22;27405;53.316;-6.294;2023-08-31T12:55:13;20.40;99.90
41720;DHT22;27405;53.316;-6.294;2023-08-31T12:57:38;20.40;99.90
41720;DHT22;27405;53.316;-6.294;2023-08-31T13:00:05;20.40;99.90
41720;DHT22;27405;53.316;-6.294;2023-08-31T13:02:34;20.50;99.90
41720;DHT22;27405;53.316;-6.294;2023-08-31T13:05:00;20.60;99.90
41720;DHT22;27405;53.316;-6.294;2023-08-31T13:07:26;20.60;99.90
41720;DHT22;27405;53.316;-6.294;2023-08-31T13:09:52;20.70;99.90
41720;DHT22;27405;53.316;-6.294;2023-08-31T13:12:18;20.80;99.90
41720;DHT22;27405;53.316;-6.294;2023-08-31T13:14:44;20.80;99.90
41720;DHT22;27405;53.316;-6.294;2023-08-31T13:17:10;20.90;99.90
41720;DHT22;27405;53.316;-6.294;2023-08-31T13:19:36;20.90;99.90
41720;DHT22;27405;53.316;-6.294;2023-08-31T13:22:02;21.00;99.90
41720;DHT22;27405;53.316;-6.294;2023-08-31T13:27:50;21.30;99.90
41720;DHT22;27405;53.316;-6.294;2023-08-31T13:30:16;21.30;99.90
41720;DHT22;27405;53.316;-6.294;2023-08-31T13:32:42;21.30;99.90
41720;DHT22;27405;53.316;-6.294;2023-08-31T13:35:10;21.40;99.90
41720;DHT22;27405;53.316;-6.294;2023-08-31T13:37:36;21.40;99.90
41720;DHT22;27405;53.316;-6.294;2023-08-31T13:40:02;21.30;99.90
41720;DHT22;27405;53.316;-6.294;2023-08-31T13:42:34;21.40;99.90
41720;DHT22;27405;53.316;-6.294;2023-08-31T13:45:01;21.40;99.90
41720;DHT22;27405;53.316;-6.294;2023-08-31T13:47:29;21.50;99.90
41720;DHT22;27405;53.316;-6.294;2023-08-31T13:49:55;21.60;99.90
41720;DHT22;27405;53.316;-6.294;2023-08-31T13:52:21;21.60;99.90
41720;DHT22;27405;53.316;-6.294;2023-08-31T13:58:09;21.80;99.90
41720;DHT22;27405;53.316;-6.294;2023-08-31T14:03:57;21.60;99.90
41720;DHT22;27405;53.316;-6.294;2023-08-31T14:06:23;21.60;99.90
41720;DHT22;27405;53.316;-6.294;2023-08-31T14:08:49;21.60;99.90
41720;DHT22;27405;53.316;-6.294;2023-08-31T14:11:14;21.60;99.90
41720;DHT22;27405;53.316;-6.294;2023-08-31T14:13:43;21.60;99.90
41720;DHT22;27405;53.316;-6.294;2023-08-31T14:16:09;21.60;99.90
41720;DHT22;27405;53.316;-6.294;2023-08-31T14:18:37;21.50;99.90
41720;DHT22;27405;53.316;-6.294;2023-08-31T14:21:03;21.40;99.90
41720;DHT22;27405;53.316;-6.294;2023-08-31T14:23:29;21.30;99.90
41720;DHT22;27405;53.316;-6.294;2023-08-31T14:26:05;21.40;99.90
41720;DHT22;27405;53.316;-6.294;2023-08-31T14:28:31;21.40;99.90
41720;DHT22;27405;53.316;-6.294;2023-08-31T14:30:57;21.40;99.90
41720;DHT22;27405;53.316;-6.294;2023-08-31T14:33:23;21.20;99.90
41720;DHT22;27405;53.316;-6.294;2023-08-31T14:35:52;21.10;99.90
41720;DHT22;27405;53.316;-6.294;2023-08-31T14:38:22;20.90;99.90
41720;DHT22;27405;53.316;-6.294;2023-08-31T14:40:49;20.80;99.90
41720;DHT22;27405;53.316;-6.294;2023-08-31T14:43:15;20.90;99.90
41720;DHT22;27405;53.316;-6.294;2023-08-31T14:45:40;21.10;99.90
41720;DHT22;27405;53.316;-6.294;2023-08-31T14:48:07;21.30;99.90
41720;DHT22;27405;53.316;-6.294;2023-08-31T14:50:33;21.50;99.90
41720;DHT22;27405;53.316;-6.294;2023-08-31T14:52:59;21.70;99.90
41720;DHT22;27405;53.316;-6.294;2023-08-31T14:55:25;21.80;99.90
41720;DHT22;27405;53.316;-6.294;2023-08-31T14:57:51;21.80;99.90
41720;DHT22;27405;53.316;-6.294;2023-08-31T15:00:17;21.80;99.80
41720;DHT22;27405;53.316;-6.294;2023-08-31T15:02:44;21.80;99.80
41720;DHT22;27405;53.316;-6.294;2023-08-31T15:05:12;21.80;99.70
41720;DHT22;27405;53.316;-6.294;2023-08-31T15:11:00;21.60;99.70
41720;DHT22;27405;53.316;-6.294;2023-08-31T15:13:26;21.50;99.60
41720;DHT22;27405;53.316;-6.294;2023-08-31T15:15:52;21.30;99.70
41720;DHT22;27405;53.316;-6.294;2023-08-31T15:18:18;21.20;99.90
41720;DHT22;27405;53.316;-6.294;2023-08-31T15:24:06;20.80;99.90
41720;DHT22;27405;53.316;-6.294;2023-08-31T15:26:32;20.60;99.90
41720;DHT22;27405;53.316;-6.294;2023-08-31T15:28:58;20.60;99.90
41720;DHT22;27405;53.316;-6.294;2023-08-31T15:31:24;20.40;99.90
41720;DHT22;27405;53.316;-6.294;2023-08-31T15:33:50;20.40;99.90
41720;DHT22;27405;53.316;-6.294;2023-08-31T15:36:16;20.40;99.90
41720;DHT22;27405;53.316;-6.294;2023-08-31T15:38:42;20.40;99.90
41720;DHT22;27405;53.316;-6.294;2023-08-31T15:44:30;20.40;99.90
41720;DHT22;27405;53.316;-6.294;2023-08-31T15:46:56;20.40;99.90
41720;DHT22;27405;53.316;-6.294;2023-08-31T15:49:22;20.40;99.90
41720;DHT22;27405;53.316;-6.294;2023-08-31T15:51:49;20.40;99.90
41720;DHT22;27405;53.316;-6.294;2023-08-31T15:54:14;20.30;99.90
41720;DHT22;27405;53.316;-6.294;2023-08-31T15:56:41;20.30;99.90
41720;DHT22;27405;53.316;-6.294;2023-08-31T15:59:06;20.30;99.90
41720;DHT22;27405;53.316;-6.294;2023-08-31T16:01:32;20.30;99.90
41720;DHT22;27405;53.316;-6.294;2023-08-31T16:03:58;20.40;99.90
41720;DHT22;27405;53.316;-6.294;2023-08-31T16:09:50;20.40;99.90
41720;DHT22;27405;53.316;-6.294;2023-08-31T16:12:17;20.40;99.90
41720;DHT22;27405;53.316;-6.294;2023-08-31T16:18:05;20.70;99.90
41720;DHT22;27405;53.316;-6.294;2023-08-31T16:23:53;21.10;99.90
41720;DHT22;27405;53.316;-6.294;2023-08-31T16:26:19;21.20;99.90
41720;DHT22;27405;53.316;-6.294;2023-08-31T16:32:07;21.40;99.90
41720;DHT22;27405;53.316;-6.294;2023-08-31T16:37:55;21.60;99.90
41720;DHT22;27405;53.316;-6.294;2023-08-31T16:40:21;21.50;99.90
41720;DHT22;27405;53.316;-6.294;2023-08-31T16:42:47;21.50;99.90
41720;DHT22;27405;53.316;-6.294;2023-08-31T16:45:13;21.50;99.90
41720;DHT22;27405;53.316;-6.294;2023-08-31T16:47:39;21.60;99.90
41720;DHT22;27405;53.316;-6.294;2023-08-31T16:50:08;21.50;99.90
41720;DHT22;27405;53.316;-6.294;2023-08-31T16:52:34;21.50;99.90
41720;DHT22;27405;53.316;-6.294;2023-08-31T16:58:22;21.40;99.90
41720;DHT22;27405;53.316;-6.294;2023-08-31T17:00:48;21.50;99.90
41720;DHT22;27405;53.316;-6.294;2023-08-31T17:06:36;21.40;99.90
41720;DHT22;27405;53.316;-6.294;2023-08-31T17:09:02;21.20;99.90
41720;DHT22;27405;53.316;-6.294;2023-08-31T17:11:32;21.10;99.90
41720;DHT22;27405;53.316;-6.294;2023-08-31T17:14:00;21.00;99.90
41720;DHT22;27405;53.316;-6.294;2023-08-31T17:16:26;20.80;99.90
41720;DHT22;27405;53.316;-6.294;2023-08-31T17:18:52;20.60;99.90
41720;DHT22;27405;53.316;-6.294;2023-08-31T17:21:18;20.50;99.90
41720;DHT22;27405;53.316;-6.294;2023-08-31T17:27:06;20.20;99.90
41720;DHT22;27405;53.316;-6.294;2023-08-31T17:29:32;20.10;99.90
41720;DHT22;27405;53.316;-6.294;2023-08-31T17:31:58;19.90;99.90
41720;DHT22;27405;53.316;-6.294;2023-08-31T17:34:24;19.90;99.90
41720;DHT22;27405;53.316;-6.294;2023-08-31T17:40:13;19.70;99.90
41720;DHT22;27405;53.316;-6.294;2023-08-31T17:42:39;19.60;99.90
41720;DHT22;27405;53.316;-6.294;2023-08-31T17:45:08;19.50;99.90
41720;DHT22;27405;53.316;-6.294;2023-08-31T17:47:34;19.40;99.90
41720;DHT22;27405;53.316;-6.294;2023-08-31T17:50:00;19.40;99.90
41720;DHT22;27405;53.316;-6.294;2023-08-31T17:52:28;19.50;99.90
41720;DHT22;27405;53.316;-6.294;2023-08-31T17:54:54;19.50;99.90
41720;DHT22;27405;53.316;-6.294;2023-08-31T17:57:21;19.60;99.90
41720;DHT22;27405;53.316;-6.294;2023-08-31T17:59:48;19.60;99.90
41720;DHT22;27405;53.316;-6.294;2023-08-31T18:02:14;19.50;99.90
41720;DHT22;27405;53.316;-6.294;2023-08-31T18:04:40;19.30;99.90
41720;DHT22;27405;53.316;-6.294;2023-08-31T18:07:06;19.30;99.90
41720;DHT22;27405;53.316;-6.294;2023-08-31T18:09:33;19.30;99.90